sensor_id;sensor_type;location;lat;lon;timestamp;P1;durP1;ratioP1;P2;durP2;ratioP2
18322;SDS011;9287;49.456;11.064;2023-12-20T00:02:18;4.23;;;3.47;;
18322;SDS011;9287;49.456;11.064;2023-12-20T00:04:46;6.93;;;4.10;;
18322;SDS011;9287;49.456;11.064;2023-12-20T00:07:16;5.63;;;3.90;;
18322;SDS011;9287;49.456;11.064;2023-12-20T00:09:44;5.03;;;3.50;;
18322;SDS011;9287;49.456;11.064;2023-12-20T00:12:13;4.00;;;3.47;;
18322;SDS011;9287;49.456;11.064;2023-12-20T00:14:48;5.63;;;3.90;;
18322;SDS011;9287;49.456;11.064;2023-12-20T00:17:16;5.67;;;3.90;;
18322;SDS011;9287;49.456;11.064;2023-12-20T00:19:44;9.70;;;3.40;;
18322;SDS011;9287;49.456;11.064;2023-12-20T00:22:13;5.63;;;3.13;;
18322;SDS011;9287;49.456;11.064;2023-12-20T00:24:46;3.70;;;3.40;;
18322;SDS011;9287;49.456;11.064;2023-12-20T00:27:15;5.77;;;3.70;;
18322;SDS011;9287;49.456;11.064;2023-12-20T00:29:43;4.03;;;3.57;;
18322;SDS011;9287;49.456;11.064;2023-12-20T00:32:14;5.87;;;4.00;;
18322;SDS011;9287;49.456;11.064;2023-12-20T00:34:43;4.60;;;3.23;;
18322;SDS011;9287;49.456;11.064;2023-12-20T00:37:11;5.43;;;3.63;;
18322;SDS011;9287;49.456;11.064;2023-12-20T00:39:41;5.17;;;3.53;;
18322;SDS011;9287;49.456;11.064;2023-12-20T00:42:11;4.40;;;3.50;;
18322;SDS011;9287;49.456;11.064;2023-12-20T00:44:40;6.57;;;3.87;;
18322;SDS011;9287;49.456;11.064;2023-12-20T00:47:09;4.80;;;3.30;;
18322;SDS011;9287;49.456;11.064;2023-12-20T00:49:39;4.63;;;3.53;;
18322;SDS011;9287;49.456;11.064;2023-12-20T00:52:10;4.10;;;3.70;;
18322;SDS011;9287;49.456;11.064;2023-12-20T00:54:40;4.13;;;3.50;;
18322;SDS011;9287;49.456;11.064;2023-12-20T00:57:10;4.97;;;3.77;;
18322;SDS011;9287;49.456;11.064;2023-12-20T00:59:37;5.07;;;3.57;;
18322;SDS011;9287;49.456;11.064;2023-12-20T01:02:06;6.63;;;3.63;;
18322;SDS011;9287;49.456;11.064;2023-12-20T01:04:35;5.10;;;3.80;;
18322;SDS011;9287;49.456;11.064;2023-12-20T01:07:04;4.23;;;3.53;;
18322;SDS011;9287;49.456;11.064;2023-12-20T01:09:31;5.43;;;3.43;;
18322;SDS011;9287;49.456;11.064;2023-12-20T01:12:01;5.87;;;3.77;;
18322;SDS011;9287;49.456;11.064;2023-12-20T01:14:30;4.67;;;3.60;;
18322;SDS011;9287;49.456;11.064;2023-12-20T01:17:01;5.27;;;3.30;;
18322;SDS011;9287;49.456;11.064;2023-12-20T01:19:30;3.33;;;2.63;;
18322;SDS011;9287;49.456;11.064;2023-12-20T01:21:58;5.07;;;2.33;;
18322;SDS011;9287;49.456;11.064;2023-12-20T01:24:27;3.60;;;1.80;;
18322;SDS011;9287;49.456;11.064;2023-12-20T01:26:55;1.80;;;1.50;;
18322;SDS011;9287;49.456;11.064;2023-12-20T01:29:27;4.40;;;1.53;;
18322;SDS011;9287;49.456;11.064;2023-12-20T01:31:54;1.53;;;1.20;;
18322;SDS011;9287;49.456;11.064;2023-12-20T01:34:22;1.17;;;1.07;;
18322;SDS011;9287;49.456;11.064;2023-12-20T01:36:52;0.80;;;0.80;;
18322;SDS011;9287;49.456;11.064;2023-12-20T01:39:20;0.80;;;0.80;;
18322;SDS011;9287;49.456;11.064;2023-12-20T01:41:55;1.90;;;1.00;;
18322;SDS011;9287;49.456;11.064;2023-12-20T01:44:24;1.00;;;0.90;;
18322;SDS011;9287;49.456;11.064;2023-12-20T01:46:55;0.97;;;0.87;;
18322;SDS011;9287;49.456;11.064;2023-12-20T01:49:25;1.43;;;0.83;;
18322;SDS011;9287;49.456;11.064;2023-12-20T01:51:53;2.20;;;0.70;;
18322;SDS011;9287;49.456;11.064;2023-12-20T01:54:22;0.67;;;0.67;;
18322;SDS011;9287;49.456;11.064;2023-12-20T01:56:52;0.70;;;0.70;;
18322;SDS011;9287;49.456;11.064;2023-12-20T01:59:24;2.20;;;0.60;;
18322;SDS011;9287;49.456;11.064;2023-12-20T02:01:55;0.70;;;0.70;;
18322;SDS011;9287;49.456;11.064;2023-12-20T02:04:26;1.00;;;0.70;;
18322;SDS011;9287;49.456;11.064;2023-12-20T02:06:57;1.90;;;0.80;;
18322;SDS011;9287;49.456;11.064;2023-12-20T02:09:27;2.57;;;0.60;;
18322;SDS011;9287;49.456;11.064;2023-12-20T02:11:57;0.60;;;0.60;;
18322;SDS011;9287;49.456;11.064;2023-12-20T02:14:38;0.50;;;0.50;;
18322;SDS011;9287;49.456;11.064;2023-12-20T02:17:10;0.60;;;0.60;;
18322;SDS011;9287;49.456;11.064;2023-12-20T02:19:38;0.60;;;0.50;;
18322;SDS011;9287;49.456;11.064;2023-12-20T02:22:10;0.80;;;0.50;;
18322;SDS011;9287;49.456;11.064;2023-12-20T02:24:40;0.50;;;0.50;;
18322;SDS011;9287;49.456;11.064;2023-12-20T02:27:08;0.40;;;0.40;;
18322;SDS011;9287;49.456;11.064;2023-12-20T02:29:37;1.73;;;0.40;;
18322;SDS011;9287;49.456;11.064;2023-12-20T02:32:04;0.50;;;0.40;;
18322;SDS011;9287;49.456;11.064;2023-12-20T02:34:33;0.40;;;0.40;;
18322;SDS011;9287;49.456;11.064;2023-12-20T02:37:01;0.30;;;0.30;;
18322;SDS011;9287;49.456;11.064;2023-12-20T02:39:31;0.50;;;0.50;;
18322;SDS011;9287;49.456;11.064;2023-12-20T02:41:59;0.30;;;0.30;;
18322;SDS011;9287;49.456;11.064;2023-12-20T02:44:28;1.03;;;0.40;;
18322;SDS011;9287;49.456;11.064;2023-12-20T02:46:58;0.33;;;0.33;;
18322;SDS011;9287;49.456;11.064;2023-12-20T02:49:26;0.50;;;0.37;;
18322;SDS011;9287;49.456;11.064;2023-12-20T02:51:55;0.30;;;0.30;;
18322;SDS011;9287;49.456;11.064;2023-12-20T02:54:24;0.40;;;0.40;;
18322;SDS011;9287;49.456;11.064;2023-12-20T02:56:58;1.03;;;0.40;;
18322;SDS011;9287;49.456;11.064;2023-12-20T02:59:26;0.87;;;0.40;;
18322;SDS011;9287;49.456;11.064;2023-12-20T03:01:55;0.77;;;0.47;;
18322;SDS011;9287;49.456;11.064;2023-12-20T03:04:24;0.47;;;0.47;;
18322;SDS011;9287;49.456;11.064;2023-12-20T03:06:52;0.37;;;0.37;;
18322;SDS011;9287;49.456;11.064;2023-12-20T03:09:20;0.40;;;0.40;;
18322;SDS011;9287;49.456;11.064;2023-12-20T03:11:51;0.30;;;0.30;;
18322;SDS011;9287;49.456;11.064;2023-12-20T03:14:21;0.30;;;0.30;;
18322;SDS011;9287;49.456;11.064;2023-12-20T03:16:49;0.20;;;0.20;;
18322;SDS011;9287;49.456;11.064;2023-12-20T03:19:17;0.30;;;0.30;;
18322;SDS011;9287;49.456;11.064;2023-12-20T03:21:46;0.30;;;0.30;;
18322;SDS011;9287;49.456;11.064;2023-12-20T03:24:14;0.30;;;0.30;;
18322;SDS011;9287;49.456;11.064;2023-12-20T03:26:42;0.30;;;0.30;;
18322;SDS011;9287;49.456;11.064;2023-12-20T03:29:12;0.23;;;0.23;;
18322;SDS011;9287;49.456;11.064;2023-12-20T03:31:41;0.40;;;0.40;;
18322;SDS011;9287;49.456;11.064;2023-12-20T03:34:11;0.40;;;0.40;;
18322;SDS011;9287;49.456;11.064;2023-12-20T03:36:40;0.40;;;0.40;;
18322;SDS011;9287;49.456;11.064;2023-12-20T03:39:10;0.30;;;0.30;;
18322;SDS011;9287;49.456;11.064;2023-12-20T03:41:38;0.40;;;0.30;;
18322;SDS011;9287;49.456;11.064;2023-12-20T03:44:07;0.40;;;0.30;;
18322;SDS011;9287;49.456;11.064;2023-12-20T03:46:35;3.03;;;0.50;;
18322;SDS011;9287;49.456;11.064;2023-12-20T03:49:08;0.80;;;0.30;;
18322;SDS011;9287;49.456;11.064;2023-12-20T03:51:39;0.40;;;0.40;;
18322;SDS011;9287;49.456;11.064;2023-12-20T03:54:08;0.40;;;0.40;;
18322;SDS011;9287;49.456;11.064;2023-12-20T03:56:36;0.40;;;0.40;;
18322;SDS011;9287;49.456;11.064;2023-12-20T03:59:04;0.73;;;0.40;;
18322;SDS011;9287;49.456;11.064;2023-12-20T04:01:32;0.40;;;0.40;;
18322;SDS011;9287;49.456;11.064;2023-12-20T04:04:01;0.40;;;0.40;;
18322;SDS011;9287;49.456;11.064;2023-12-20T04:06:33;0.50;;;0.50;;
18322;SDS011;9287;49.456;11.064;2023-12-20T04:09:03;0.33;;;0.33;;
18322;SDS011;9287;49.456;11.064;2023-12-20T04:11:30;0.30;;;0.30;;
18322;SDS011;9287;49.456;11.064;2023-12-20T04:14:00;0.33;;;0.33;;
18322;SDS011;9287;49.456;11.064;2023-12-20T04:16:29;0.33;;;0.33;;
18322;SDS011;9287;49.456;11.064;2023-12-20T04:18:57;0.40;;;0.40;;
18322;SDS011;9287;49.456;11.064;2023-12-20T04:21:26;0.70;;;0.47;;
18322;SDS011;9287;49.456;11.064;2023-12-20T04:23:55;0.40;;;0.40;;
18322;SDS011;9287;49.456;11.064;2023-12-20T04:26:24;0.40;;;0.40;;
18322;SDS011;9287;49.456;11.064;2023-12-20T04:28:53;0.40;;;0.40;;
18322;SDS011;9287;49.456;11.064;2023-12-20T04:31:24;0.60;;;0.53;;
18322;SDS011;9287;49.456;11.064;2023-12-20T04:33:53;0.40;;;0.40;;
18322;SDS011;9287;49.456;11.064;2023-12-20T04:36:21;0.67;;;0.43;;
18322;SDS011;9287;49.456;11.064;2023-12-20T04:38:49;0.60;;;0.50;;
18322;SDS011;9287;49.456;11.064;2023-12-20T04:41:18;0.40;;;0.40;;
18322;SDS011;9287;49.456;11.064;2023-12-20T04:43:47;0.50;;;0.50;;
18322;SDS011;9287;49.456;11.064;2023-12-20T04:46:16;1.80;;;0.40;;
18322;SDS011;9287;49.456;11.064;2023-12-20T04:48:45;0.50;;;0.50;;
18322;SDS011;9287;49.456;11.064;2023-12-20T04:51:14;0.40;;;0.40;;
18322;SDS011;9287;49.456;11.064;2023-12-20T04:53:42;0.50;;;0.50;;
18322;SDS011;9287;49.456;11.064;2023-12-20T04:56:10;0.50;;;0.50;;
18322;SDS011;9287;49.456;11.064;2023-12-20T04:58:41;0.50;;;0.50;;
18322;SDS011;9287;49.456;11.064;2023-12-20T05:01:10;0.47;;;0.47;;
18322;SDS011;9287;49.456;11.064;2023-12-20T05:03:40;0.50;;;0.50;;
18322;SDS011;9287;49.456;11.064;2023-12-20T05:06:20;0.37;;;0.37;;
18322;SDS011;9287;49.456;11.064;2023-12-20T05:08:57;2.40;;;0.60;;
18322;SDS011;9287;49.456;11.064;2023-12-20T05:11:39;0.43;;;0.43;;
18322;SDS011;9287;49.456;11.064;2023-12-20T05:14:09;0.43;;;0.43;;
18322;SDS011;9287;49.456;11.064;2023-12-20T05:16:37;0.60;;;0.60;;
18322;SDS011;9287;49.456;11.064;2023-12-20T05:19:07;0.50;;;0.50;;
18322;SDS011;9287;49.456;11.064;2023-12-20T05:21:35;0.50;;;0.50;;
18322;SDS011;9287;49.456;11.064;2023-12-20T05:24:04;0.80;;;0.50;;
18322;SDS011;9287;49.456;11.064;2023-12-20T05:26:34;0.60;;;0.60;;
18322;SDS011;9287;49.456;11.064;2023-12-20T05:29:04;0.53;;;0.53;;
18322;SDS011;9287;49.456;11.064;2023-12-20T05:31:43;0.50;;;0.50;;
18322;SDS011;9287;49.456;11.064;2023-12-20T05:34:17;0.50;;;0.50;;
18322;SDS011;9287;49.456;11.064;2023-12-20T05:36:48;0.60;;;0.60;;
18322;SDS011;9287;49.456;11.064;2023-12-20T05:39:18;0.67;;;0.50;;
18322;SDS011;9287;49.456;11.064;2023-12-20T05:41:46;0.50;;;0.50;;
18322;SDS011;9287;49.456;11.064;2023-12-20T05:44:14;1.27;;;0.80;;
18322;SDS011;9287;49.456;11.064;2023-12-20T05:46:47;1.53;;;0.80;;
18322;SDS011;9287;49.456;11.064;2023-12-20T05:49:23;1.63;;;0.93;;
18322;SDS011;9287;49.456;11.064;2023-12-20T05:51:58;2.53;;;0.97;;
18322;SDS011;9287;49.456;11.064;2023-12-20T05:54:31;1.90;;;1.20;;
18322;SDS011;9287;49.456;11.064;2023-12-20T05:57:00;2.37;;;1.20;;
18322;SDS011;9287;49.456;11.064;2023-12-20T05:59:31;1.13;;;0.87;;
18322;SDS011;9287;49.456;11.064;2023-12-20T06:02:00;0.90;;;0.80;;
18322;SDS011;9287;49.456;11.064;2023-12-20T06:04:28;1.07;;;0.70;;
18322;SDS011;9287;49.456;11.064;2023-12-20T06:06:56;0.80;;;0.70;;
18322;SDS011;9287;49.456;11.064;2023-12-20T06:09:26;2.70;;;0.70;;
18322;SDS011;9287;49.456;11.064;2023-12-20T06:11:57;0.80;;;0.80;;
18322;SDS011;9287;49.456;11.064;2023-12-20T06:14:26;0.70;;;0.70;;
18322;SDS011;9287;49.456;11.064;2023-12-20T06:17:03;0.60;;;0.60;;
18322;SDS011;9287;49.456;11.064;2023-12-20T06:19:31;0.77;;;0.77;;
18322;SDS011;9287;49.456;11.064;2023-12-20T06:21:59;0.93;;;0.83;;
18322;SDS011;9287;49.456;11.064;2023-12-20T06:24:29;1.63;;;0.87;;
18322;SDS011;9287;49.456;11.064;2023-12-20T06:27:00;2.83;;;0.90;;
18322;SDS011;9287;49.456;11.064;2023-12-20T06:29:28;2.53;;;1.33;;
18322;SDS011;9287;49.456;11.064;2023-12-20T06:31:57;2.37;;;1.20;;
18322;SDS011;9287;49.456;11.064;2023-12-20T06:34:27;1.57;;;1.23;;
18322;SDS011;9287;49.456;11.064;2023-12-20T06:36:54;2.87;;;1.60;;
18322;SDS011;9287;49.456;11.064;2023-12-20T06:39:22;2.00;;;1.40;;
18322;SDS011;9287;49.456;11.064;2023-12-20T06:41:50;1.93;;;1.23;;
18322;SDS011;9287;49.456;11.064;2023-12-20T06:44:18;2.70;;;1.43;;
18322;SDS011;9287;49.456;11.064;2023-12-20T06:46:46;3.03;;;1.60;;
18322;SDS011;9287;49.456;11.064;2023-12-20T06:49:14;3.80;;;1.53;;
18322;SDS011;9287;49.456;11.064;2023-12-20T06:51:43;1.60;;;1.50;;
18322;SDS011;9287;49.456;11.064;2023-12-20T06:54:11;1.80;;;1.10;;
18322;SDS011;9287;49.456;11.064;2023-12-20T06:56:39;3.07;;;1.33;;
18322;SDS011;9287;49.456;11.064;2023-12-20T06:59:07;3.33;;;1.40;;
18322;SDS011;9287;49.456;11.064;2023-12-20T07:01:35;1.80;;;1.70;;
18322;SDS011;9287;49.456;11.064;2023-12-20T07:04:04;2.40;;;2.20;;
18322;SDS011;9287;49.456;11.064;2023-12-20T07:06:32;2.40;;;2.07;;
18322;SDS011;9287;49.456;11.064;2023-12-20T07:09:09;1.97;;;1.80;;
18322;SDS011;9287;49.456;11.064;2023-12-20T07:11:40;3.30;;;2.30;;
18322;SDS011;9287;49.456;11.064;2023-12-20T07:14:09;2.23;;;2.03;;
18322;SDS011;9287;49.456;11.064;2023-12-20T07:16:39;2.67;;;2.10;;
18322;SDS011;9287;49.456;11.064;2023-12-20T07:19:08;3.53;;;1.57;;
18322;SDS011;9287;49.456;11.064;2023-12-20T07:21:36;1.60;;;1.50;;
18322;SDS011;9287;49.456;11.064;2023-12-20T07:24:09;2.17;;;1.93;;
18322;SDS011;9287;49.456;11.064;2023-12-20T07:26:37;1.60;;;1.50;;
18322;SDS011;9287;49.456;11.064;2023-12-20T07:29:06;1.63;;;1.50;;
18322;SDS011;9287;49.456;11.064;2023-12-20T07:31:35;3.63;;;2.30;;
18322;SDS011;9287;49.456;11.064;2023-12-20T07:34:03;1.80;;;1.60;;
18322;SDS011;9287;49.456;11.064;2023-12-20T07:36:32;2.37;;;2.17;;
18322;SDS011;9287;49.456;11.064;2023-12-20T07:39:00;3.00;;;2.80;;
18322;SDS011;9287;49.456;11.064;2023-12-20T07:41:30;2.13;;;2.00;;
18322;SDS011;9287;49.456;11.064;2023-12-20T07:43:59;2.57;;;2.37;;
18322;SDS011;9287;49.456;11.064;2023-12-20T07:46:27;2.77;;;2.57;;
18322;SDS011;9287;49.456;11.064;2023-12-20T07:48:55;2.47;;;2.33;;
18322;SDS011;9287;49.456;11.064;2023-12-20T07:51:23;3.17;;;2.37;;
18322;SDS011;9287;49.456;11.064;2023-12-20T07:53:51;2.57;;;2.37;;
18322;SDS011;9287;49.456;11.064;2023-12-20T07:56:19;2.23;;;2.13;;
18322;SDS011;9287;49.456;11.064;2023-12-20T07:58:48;4.10;;;2.80;;
18322;SDS011;9287;49.456;11.064;2023-12-20T08:01:19;1.90;;;1.80;;
18322;SDS011;9287;49.456;11.064;2023-12-20T08:03:48;4.27;;;2.80;;
18322;SDS011;9287;49.456;11.064;2023-12-20T08:06:18;2.83;;;2.63;;
18322;SDS011;9287;49.456;11.064;2023-12-20T08:08:45;3.40;;;2.60;;
18322;SDS011;9287;49.456;11.064;2023-12-20T08:11:26;3.63;;;2.37;;
18322;SDS011;9287;49.456;11.064;2023-12-20T08:13:56;2.63;;;2.27;;
18322;SDS011;9287;49.456;11.064;2023-12-20T08:16:24;3.23;;;2.30;;
18322;SDS011;9287;49.456;11.064;2023-12-20T08:18:52;3.20;;;2.10;;
18322;SDS011;9287;49.456;11.064;2023-12-20T08:21:20;2.47;;;2.27;;
18322;SDS011;9287;49.456;11.064;2023-12-20T08:23:49;1.87;;;1.77;;
18322;SDS011;9287;49.456;11.064;2023-12-20T08:26:18;1.90;;;1.80;;
18322;SDS011;9287;49.456;11.064;2023-12-20T08:28:47;2.30;;;2.10;;
18322;SDS011;9287;49.456;11.064;2023-12-20T08:31:17;3.37;;;2.10;;
18322;SDS011;9287;49.456;11.064;2023-12-20T08:33:46;3.10;;;2.03;;
18322;SDS011;9287;49.456;11.064;2023-12-20T08:36:15;1.50;;;1.40;;
18322;SDS011;9287;49.456;11.064;2023-12-20T08:38:44;1.30;;;1.20;;
18322;SDS011;9287;49.456;11.064;2023-12-20T08:41:12;1.77;;;1.30;;
18322;SDS011;9287;49.456;11.064;2023-12-20T08:43:41;1.10;;;1.10;;
18322;SDS011;9287;49.456;11.064;2023-12-20T08:46:09;2.30;;;1.37;;
18322;SDS011;9287;49.456;11.064;2023-12-20T08:48:40;1.13;;;1.03;;
18322;SDS011;9287;49.456;11.064;2023-12-20T08:51:08;1.30;;;1.20;;
18322;SDS011;9287;49.456;11.064;2023-12-20T08:53:37;1.50;;;1.10;;
18322;SDS011;9287;49.456;11.064;2023-12-20T08:56:05;1.50;;;1.40;;
18322;SDS011;9287;49.456;11.064;2023-12-20T08:58:33;1.50;;;1.40;;
18322;SDS011;9287;49.456;11.064;2023-12-20T09:01:02;1.50;;;1.30;;
18322;SDS011;9287;49.456;11.064;2023-12-20T09:03:32;1.40;;;1.30;;
18322;SDS011;9287;49.456;11.064;2023-12-20T09:06:02;2.30;;;1.30;;
18322;SDS011;9287;49.456;11.064;2023-12-20T09:08:34;1.20;;;1.10;;
18322;SDS011;9287;49.456;11.064;2023-12-20T09:11:02;2.00;;;1.10;;
18322;SDS011;9287;49.456;11.064;2023-12-20T09:13:31;1.13;;;1.00;;
18322;SDS011;9287;49.456;11.064;2023-12-20T09:16:01;0.90;;;0.80;;
18322;SDS011;9287;49.456;11.064;2023-12-20T09:18:30;3.30;;;0.93;;
18322;SDS011;9287;49.456;11.064;2023-12-20T09:21:01;1.00;;;0.90;;
18322;SDS011;9287;49.456;11.064;2023-12-20T09:23:30;0.80;;;0.70;;
18322;SDS011;9287;49.456;11.064;2023-12-20T09:25:58;1.77;;;0.70;;
18322;SDS011;9287;49.456;11.064;2023-12-20T09:28:26;1.30;;;0.80;;
18322;SDS011;9287;49.456;11.064;2023-12-20T09:30:54;2.80;;;0.90;;
18322;SDS011;9287;49.456;11.064;2023-12-20T09:33:24;0.70;;;0.70;;
18322;SDS011;9287;49.456;11.064;2023-12-20T09:35:52;0.80;;;0.80;;
18322;SDS011;9287;49.456;11.064;2023-12-20T09:38:23;2.90;;;0.90;;
18322;SDS011;9287;49.456;11.064;2023-12-20T09:40:52;1.07;;;0.70;;
18322;SDS011;9287;49.456;11.064;2023-12-20T09:43:23;1.77;;;1.07;;
18322;SDS011;9287;49.456;11.064;2023-12-20T09:45:55;1.77;;;0.80;;
18322;SDS011;9287;49.456;11.064;2023-12-20T09:48:31;1.57;;;0.70;;
18322;SDS011;9287;49.456;11.064;2023-12-20T09:51:00;1.83;;;0.60;;
18322;SDS011;9287;49.456;11.064;2023-12-20T09:53:32;1.23;;;0.50;;
18322;SDS011;9287;49.456;11.064;2023-12-20T09:56:04;2.57;;;0.50;;
18322;SDS011;9287;49.456;11.064;2023-12-20T09:58:36;1.87;;;0.60;;
18322;SDS011;9287;49.456;11.064;2023-12-20T10:01:06;1.20;;;0.60;;
18322;SDS011;9287;49.456;11.064;2023-12-20T10:03:35;2.40;;;0.50;;
18322;SDS011;9287;49.456;11.064;2023-12-20T10:06:06;1.87;;;0.60;;
18322;SDS011;9287;49.456;11.064;2023-12-20T10:08:39;0.67;;;0.50;;
18322;SDS011;9287;49.456;11.064;2023-12-20T10:11:09;3.27;;;0.60;;
18322;SDS011;9287;49.456;11.064;2023-12-20T10:13:43;4.70;;;0.60;;
18322;SDS011;9287;49.456;11.064;2023-12-20T10:16:13;3.13;;;0.77;;
18322;SDS011;9287;49.456;11.064;2023-12-20T10:18:42;0.80;;;0.60;;
18322;SDS011;9287;49.456;11.064;2023-12-20T10:21:10;1.17;;;0.60;;
18322;SDS011;9287;49.456;11.064;2023-12-20T10:23:39;1.87;;;0.50;;
18322;SDS011;9287;49.456;11.064;2023-12-20T10:26:07;2.30;;;0.70;;
18322;SDS011;9287;49.456;11.064;2023-12-20T10:28:37;2.17;;;0.70;;
18322;SDS011;9287;49.456;11.064;2023-12-20T10:31:07;3.30;;;0.73;;
18322;SDS011;9287;49.456;11.064;2023-12-20T10:33:36;1.57;;;0.70;;
18322;SDS011;9287;49.456;11.064;2023-12-20T10:36:04;2.10;;;0.70;;
18322;SDS011;9287;49.456;11.064;2023-12-20T10:38:33;2.00;;;0.70;;
18322;SDS011;9287;49.456;11.064;2023-12-20T10:41:05;4.10;;;0.70;;
18322;SDS011;9287;49.456;11.064;2023-12-20T10:43:36;2.20;;;0.77;;
18322;SDS011;9287;49.456;11.064;2023-12-20T10:46:05;1.90;;;0.80;;
18322;SDS011;9287;49.456;11.064;2023-12-20T10:48:33;2.53;;;0.70;;
18322;SDS011;9287;49.456;11.064;2023-12-20T10:51:03;2.03;;;0.63;;
18322;SDS011;9287;49.456;11.064;2023-12-20T10:53:32;2.97;;;0.60;;
18322;SDS011;9287;49.456;11.064;2023-12-20T10:56:06;2.43;;;0.87;;
18322;SDS011;9287;49.456;11.064;2023-12-20T10:58:42;2.23;;;0.70;;
18322;SDS011;9287;49.456;11.064;2023-12-20T11:01:10;3.50;;;0.73;;
18322;SDS011;9287;49.456;11.064;2023-12-20T11:03:43;1.80;;;0.70;;
18322;SDS011;9287;49.456;11.064;2023-12-20T11:06:19;2.40;;;0.80;;
18322;SDS011;9287;49.456;11.064;2023-12-20T11:09:06;3.63;;;0.90;;
18322;SDS011;9287;49.456;11.064;2023-12-20T11:11:56;3.73;;;0.77;;
18322;SDS011;9287;49.456;11.064;2023-12-20T11:14:41;1.43;;;1.10;;
18322;SDS011;9287;49.456;11.064;2023-12-20T11:17:13;4.70;;;0.70;;
18322;SDS011;9287;49.456;11.064;2023-12-20T11:20:03;4.47;;;0.87;;
18322;SDS011;9287;49.456;11.064;2023-12-20T11:22:33;1.90;;;0.73;;
18322;SDS011;9287;49.456;11.064;2023-12-20T11:25:07;3.83;;;0.80;;
18322;SDS011;9287;49.456;11.064;2023-12-20T11:27:40;1.50;;;0.80;;
18322;SDS011;9287;49.456;11.064;2023-12-20T11:30:13;4.27;;;0.80;;
18322;SDS011;9287;49.456;11.064;2023-12-20T11:32:43;3.90;;;1.00;;
18322;SDS011;9287;49.456;11.064;2023-12-20T11:35:18;1.70;;;0.60;;
18322;SDS011;9287;49.456;11.064;2023-12-20T11:37:47;2.70;;;0.83;;
18322;SDS011;9287;49.456;11.064;2023-12-20T11:40:16;2.17;;;1.10;;
18322;SDS011;9287;49.456;11.064;2023-12-20T11:42:48;2.20;;;0.80;;
18322;SDS011;9287;49.456;11.064;2023-12-20T11:45:17;3.30;;;0.93;;
18322;SDS011;9287;49.456;11.064;2023-12-20T11:47:49;4.47;;;0.90;;
18322;SDS011;9287;49.456;11.064;2023-12-20T11:50:21;3.20;;;0.77;;
18322;SDS011;9287;49.456;11.064;2023-12-20T11:52:51;2.23;;;1.00;;
18322;SDS011;9287;49.456;11.064;2023-12-20T11:55:20;0.90;;;0.60;;
18322;SDS011;9287;49.456;11.064;2023-12-20T11:57:50;3.73;;;1.00;;
18322;SDS011;9287;49.456;11.064;2023-12-20T12:00:18;1.73;;;0.90;;
18322;SDS011;9287;49.456;11.064;2023-12-20T12:02:56;1.77;;;0.90;;
18322;SDS011;9287;49.456;11.064;2023-12-20T12:05:25;2.27;;;1.00;;
18322;SDS011;9287;49.456;11.064;2023-12-20T12:07:55;2.27;;;0.90;;
18322;SDS011;9287;49.456;11.064;2023-12-20T12:10:23;1.80;;;1.00;;
18322;SDS011;9287;49.456;11.064;2023-12-20T12:12:52;3.73;;;1.30;;
18322;SDS011;9287;49.456;11.064;2023-12-20T12:15:20;2.70;;;1.27;;
18322;SDS011;9287;49.456;11.064;2023-12-20T12:17:55;2.57;;;1.00;;
18322;SDS011;9287;49.456;11.064;2023-12-20T12:20:23;2.23;;;1.20;;
18322;SDS011;9287;49.456;11.064;2023-12-20T12:22:58;4.07;;;1.00;;
18322;SDS011;9287;49.456;11.064;2023-12-20T12:25:28;1.57;;;1.03;;
18322;SDS011;9287;49.456;11.064;2023-12-20T12:27:58;2.97;;;1.10;;
18322;SDS011;9287;49.456;11.064;2023-12-20T12:30:27;3.80;;;0.77;;
18322;SDS011;9287;49.456;11.064;2023-12-20T12:33:04;3.27;;;0.80;;
18322;SDS011;9287;49.456;11.064;2023-12-20T12:35:32;2.73;;;1.00;;
18322;SDS011;9287;49.456;11.064;2023-12-20T12:38:01;4.07;;;0.90;;
18322;SDS011;9287;49.456;11.064;2023-12-20T12:40:29;5.00;;;0.90;;
18322;SDS011;9287;49.456;11.064;2023-12-20T12:43:04;6.27;;;1.10;;
18322;SDS011;9287;49.456;11.064;2023-12-20T12:45:33;3.70;;;1.03;;
18322;SDS011;9287;49.456;11.064;2023-12-20T12:48:01;2.77;;;0.83;;
18322;SDS011;9287;49.456;11.064;2023-12-20T12:50:30;2.43;;;0.73;;
18322;SDS011;9287;49.456;11.064;2023-12-20T12:52:58;2.27;;;1.13;;
18322;SDS011;9287;49.456;11.064;2023-12-20T12:55:26;1.50;;;0.67;;
18322;SDS011;9287;49.456;11.064;2023-12-20T12:57:58;2.70;;;0.90;;
18322;SDS011;9287;49.456;11.064;2023-12-20T13:00:27;2.80;;;0.97;;
18322;SDS011;9287;49.456;11.064;2023-12-20T13:02:54;3.53;;;0.90;;
18322;SDS011;9287;49.456;11.064;2023-12-20T13:05:23;1.47;;;0.87;;
18322;SDS011;9287;49.456;11.064;2023-12-20T13:07:51;2.00;;;0.90;;
18322;SDS011;9287;49.456;11.064;2023-12-20T13:10:20;2.73;;;0.60;;
18322;SDS011;9287;49.456;11.064;2023-12-20T13:12:50;3.03;;;0.80;;
18322;SDS011;9287;49.456;11.064;2023-12-20T13:15:21;1.60;;;0.80;;
18322;SDS011;9287;49.456;11.064;2023-12-20T13:17:50;5.33;;;1.13;;
18322;SDS011;9287;49.456;11.064;2023-12-20T13:20:18;1.53;;;0.70;;
18322;SDS011;9287;49.456;11.064;2023-12-20T13:22:46;2.67;;;0.67;;
18322;SDS011;9287;49.456;11.064;2023-12-20T13:25:14;2.57;;;0.80;;
18322;SDS011;9287;49.456;11.064;2023-12-20T13:27:43;2.27;;;0.80;;
18322;SDS011;9287;49.456;11.064;2023-12-20T13:30:11;3.63;;;0.70;;
18322;SDS011;9287;49.456;11.064;2023-12-20T13:32:40;2.47;;;0.50;;
18322;SDS011;9287;49.456;11.064;2023-12-20T13:35:11;2.63;;;0.70;;
18322;SDS011;9287;49.456;11.064;2023-12-20T13:37:40;1.83;;;0.70;;
18322;SDS011;9287;49.456;11.064;2023-12-20T13:40:09;2.63;;;0.67;;
18322;SDS011;9287;49.456;11.064;2023-12-20T13:42:37;1.70;;;0.73;;
18322;SDS011;9287;49.456;11.064;2023-12-20T13:45:05;3.57;;;1.00;;
18322;SDS011;9287;49.456;11.064;2023-12-20T13:47:34;3.23;;;0.93;;
18322;SDS011;9287;49.456;11.064;2023-12-20T13:50:02;2.63;;;0.87;;
18322;SDS011;9287;49.456;11.064;2023-12-20T13:52:33;2.93;;;1.00;;
18322;SDS011;9287;49.456;11.064;2023-12-20T13:55:06;2.20;;;0.80;;
18322;SDS011;9287;49.456;11.064;2023-12-20T13:57:35;3.57;;;0.80;;
18322;SDS011;9287;49.456;11.064;2023-12-20T14:00:09;1.40;;;0.93;;
18322;SDS011;9287;49.456;11.064;2023-12-20T14:02:41;2.50;;;0.90;;
18322;SDS011;9287;49.456;11.064;2023-12-20T14:05:10;1.27;;;0.60;;
18322;SDS011;9287;49.456;11.064;2023-12-20T14:07:41;3.97;;;1.00;;
18322;SDS011;9287;49.456;11.064;2023-12-20T14:10:11;2.67;;;0.90;;
18322;SDS011;9287;49.456;11.064;2023-12-20T14:12:40;1.00;;;0.80;;
18322;SDS011;9287;49.456;11.064;2023-12-20T14:15:11;4.67;;;0.80;;
18322;SDS011;9287;49.456;11.064;2023-12-20T14:17:39;4.20;;;0.80;;
18322;SDS011;9287;49.456;11.064;2023-12-20T14:20:10;1.67;;;0.87;;
18322;SDS011;9287;49.456;11.064;2023-12-20T14:22:39;2.13;;;0.70;;
18322;SDS011;9287;49.456;11.064;2023-12-20T14:25:12;2.20;;;0.80;;
18322;SDS011;9287;49.456;11.064;2023-12-20T14:27:41;2.17;;;0.90;;
18322;SDS011;9287;49.456;11.064;2023-12-20T14:30:14;1.83;;;0.83;;
18322;SDS011;9287;49.456;11.064;2023-12-20T14:32:44;3.07;;;1.17;;
18322;SDS011;9287;49.456;11.064;2023-12-20T14:35:12;3.80;;;0.67;;
18322;SDS011;9287;49.456;11.064;2023-12-20T14:37:40;3.07;;;0.90;;
18322;SDS011;9287;49.456;11.064;2023-12-20T14:40:09;1.20;;;0.63;;
18322;SDS011;9287;49.456;11.064;2023-12-20T14:42:43;2.00;;;0.83;;
18322;SDS011;9287;49.456;11.064;2023-12-20T14:45:14;2.40;;;0.80;;
18322;SDS011;9287;49.456;11.064;2023-12-20T14:47:42;2.90;;;1.10;;
18322;SDS011;9287;49.456;11.064;2023-12-20T14:50:12;2.57;;;1.20;;
18322;SDS011;9287;49.456;11.064;2023-12-20T14:52:45;2.90;;;0.90;;
18322;SDS011;9287;49.456;11.064;2023-12-20T14:55:13;3.67;;;1.00;;
18322;SDS011;9287;49.456;11.064;2023-12-20T14:57:42;2.57;;;1.00;;
18322;SDS011;9287;49.456;11.064;2023-12-20T15:00:11;5.40;;;0.90;;
18322;SDS011;9287;49.456;11.064;2023-12-20T15:02:42;5.23;;;1.10;;
18322;SDS011;9287;49.456;11.064;2023-12-20T15:05:11;2.70;;;1.10;;